Portada
METAR-TAF:

METAR-TAF

Aeropuertos :

Harbin, China

Aeropuerto Internacional de Harbin

latitud: 45-45N, longitud: 126-46E, altitud: 143 m

Observación

El informe se hizo hace 46 minutos, a las 20:00 UTC
Viento 4 kt del oeste, variando entre oeste y noroeste
Temperatura 15°C
Humedad 72%
Presión 1009 hPa
Visibilidad 10 km o más
sin nubes por debajo de 1500 m y sin presencia de cumulonimbus.

METAR: ZYHB 242000Z 28002MPS 260V320 CAVOK 15/10 Q1009 NOSIG

Hora: 04:46 (20:46 UTC)

Pronóstico

El informe se hizo hace 5 horas y 33 minutos, a las 15:13 UTC
Pronóstico válido del 24 a las 18 UTC al 25 a las 18 UTC
Viento 8 kt del suroeste
Visibilidad: 6000 m
Nubes dispersas a una altura de 3000 ft

TAF: ZYHB 241513Z 2418/2518 23004MPS 6000 SCT030 TX27/2506Z TN14/2421Z

Observaciones y pronósticos meteorológicos de más de 4000 aeropuertos (mensajes METAR y TAF).

Los puntos amarillos y rojos representan las estaciones disponibles.

Ponga el ratón en el punto deseado para ver el nombre de la estación.

Haga clic para ver las observaciones y los pronósticos meteorológicos.

Para cambiar el mapa : haga clic en los botones verdes con una cruz de color negro para hacer un zoom, en el botón verde con un guión para alejar o en las flechas verdes para mapas adyacentes.


METAR-TAF: